sensor_id;sensor_type;location;lat;lon;timestamp;P1;durP1;ratioP1;P2;durP2;ratioP2
29432;SDS011;16405;53.964;13.448;2024-02-21T00:02:02;51.50;;;8.75;;
29432;SDS011;16405;53.964;13.448;2024-02-21T00:07:11;45.40;;;9.98;;
29432;SDS011;16405;53.964;13.448;2024-02-21T00:09:52;50.65;;;8.60;;
29432;SDS011;16405;53.964;13.448;2024-02-21T00:12:30;48.30;;;9.77;;
29432;SDS011;16405;53.964;13.448;2024-02-21T00:14:56;47.22;;;8.65;;
29432;SDS011;16405;53.964;13.448;2024-02-21T00:17:22;41.95;;;8.23;;
29432;SDS011;16405;53.964;13.448;2024-02-21T00:19:55;56.70;;;9.98;;
29432;SDS011;16405;53.964;13.448;2024-02-21T00:22:20;53.88;;;9.18;;
29432;SDS011;16405;53.964;13.448;2024-02-21T00:24:46;45.95;;;9.75;;
29432;SDS011;16405;53.964;13.448;2024-02-21T00:27:12;46.85;;;9.35;;
29432;SDS011;16405;53.964;13.448;2024-02-21T00:29:47;48.42;;;10.00;;
29432;SDS011;16405;53.964;13.448;2024-02-21T00:32:12;48.72;;;8.15;;
29432;SDS011;16405;53.964;13.448;2024-02-21T00:34:38;46.63;;;10.85;;
29432;SDS011;16405;53.964;13.448;2024-02-21T00:37:04;49.63;;;10.32;;
29432;SDS011;16405;53.964;13.448;2024-02-21T00:39:39;49.38;;;9.88;;
29432;SDS011;16405;53.964;13.448;2024-02-21T00:42:04;51.13;;;10.75;;
29432;SDS011;16405;53.964;13.448;2024-02-21T00:44:32;46.15;;;10.25;;
29432;SDS011;16405;53.964;13.448;2024-02-21T00:47:05;54.13;;;9.52;;
29432;SDS011;16405;53.964;13.448;2024-02-21T00:49:31;49.05;;;11.65;;
29432;SDS011;16405;53.964;13.448;2024-02-21T00:51:57;36.33;;;8.18;;
29432;SDS011;16405;53.964;13.448;2024-02-21T00:54:23;52.85;;;11.80;;
29432;SDS011;16405;53.964;13.448;2024-02-21T00:56:56;64.38;;;12.77;;
29432;SDS011;16405;53.964;13.448;2024-02-21T00:59:22;52.28;;;11.95;;
29432;SDS011;16405;53.964;13.448;2024-02-21T01:01:48;51.90;;;11.75;;
29432;SDS011;16405;53.964;13.448;2024-02-21T01:04:13;58.20;;;13.27;;
29432;SDS011;16405;53.964;13.448;2024-02-21T01:06:40;51.97;;;12.85;;
29432;SDS011;16405;53.964;13.448;2024-02-21T01:09:08;57.63;;;14.05;;
29432;SDS011;16405;53.964;13.448;2024-02-21T01:11:36;60.58;;;13.68;;
29432;SDS011;16405;53.964;13.448;2024-02-21T01:14:02;54.83;;;13.52;;
29432;SDS011;16405;53.964;13.448;2024-02-21T01:16:28;53.10;;;11.95;;
29432;SDS011;16405;53.964;13.448;2024-02-21T01:18:54;64.10;;;14.00;;
29432;SDS011;16405;53.964;13.448;2024-02-21T01:21:20;63.63;;;15.73;;
29432;SDS011;16405;53.964;13.448;2024-02-21T01:23:55;59.90;;;14.52;;
29432;SDS011;16405;53.964;13.448;2024-02-21T01:26:21;54.72;;;14.80;;
29432;SDS011;16405;53.964;13.448;2024-02-21T01:28:46;55.20;;;14.38;;
29432;SDS011;16405;53.964;13.448;2024-02-21T01:31:12;65.93;;;15.77;;
29432;SDS011;16405;53.964;13.448;2024-02-21T01:33:45;67.13;;;15.85;;
29432;SDS011;16405;53.964;13.448;2024-02-21T01:36:11;66.07;;;16.15;;
29432;SDS011;16405;53.964;13.448;2024-02-21T01:38:37;64.22;;;15.55;;
29432;SDS011;16405;53.964;13.448;2024-02-21T01:41:03;57.90;;;15.80;;
29432;SDS011;16405;53.964;13.448;2024-02-21T01:43:29;67.43;;;15.93;;
29432;SDS011;16405;53.964;13.448;2024-02-21T01:46:00;67.03;;;16.58;;
29432;SDS011;16405;53.964;13.448;2024-02-21T01:48:26;61.88;;;16.10;;
29432;SDS011;16405;53.964;13.448;2024-02-21T01:50:53;60.97;;;17.65;;
29432;SDS011;16405;53.964;13.448;2024-02-21T01:53:30;60.10;;;16.83;;
29432;SDS011;16405;53.964;13.448;2024-02-21T01:56:10;59.70;;;15.95;;
29432;SDS011;16405;53.964;13.448;2024-02-21T01:58:39;58.70;;;18.05;;
29432;SDS011;16405;53.964;13.448;2024-02-21T02:01:16;66.85;;;19.63;;
29432;SDS011;16405;53.964;13.448;2024-02-21T02:03:44;70.18;;;18.75;;
29432;SDS011;16405;53.964;13.448;2024-02-21T02:06:17;76.03;;;17.52;;
29432;SDS011;16405;53.964;13.448;2024-02-21T02:08:43;66.43;;;17.35;;
29432;SDS011;16405;53.964;13.448;2024-02-21T02:11:10;61.78;;;19.00;;
29432;SDS011;16405;53.964;13.448;2024-02-21T02:13:38;66.35;;;18.70;;
29432;SDS011;16405;53.964;13.448;2024-02-21T02:16:08;66.20;;;19.35;;
29432;SDS011;16405;53.964;13.448;2024-02-21T02:18:34;67.75;;;19.10;;
29432;SDS011;16405;53.964;13.448;2024-02-21T02:21:00;68.82;;;19.73;;
29432;SDS011;16405;53.964;13.448;2024-02-21T02:23:41;71.35;;;19.27;;
29432;SDS011;16405;53.964;13.448;2024-02-21T02:26:08;70.65;;;20.48;;
29432;SDS011;16405;53.964;13.448;2024-02-21T02:28:34;66.45;;;19.65;;
29432;SDS011;16405;53.964;13.448;2024-02-21T02:31:07;62.47;;;19.40;;
29432;SDS011;16405;53.964;13.448;2024-02-21T02:33:33;69.80;;;19.85;;
29432;SDS011;16405;53.964;13.448;2024-02-21T02:35:58;67.53;;;19.30;;
29432;SDS011;16405;53.964;13.448;2024-02-21T02:38:24;60.05;;;19.27;;
29432;SDS011;16405;53.964;13.448;2024-02-21T02:40:57;61.55;;;20.17;;
29432;SDS011;16405;53.964;13.448;2024-02-21T02:43:23;63.95;;;18.77;;
29432;SDS011;16405;53.964;13.448;2024-02-21T02:45:49;65.47;;;19.95;;
29432;SDS011;16405;53.964;13.448;2024-02-21T02:48:15;67.97;;;20.90;;
29432;SDS011;16405;53.964;13.448;2024-02-21T02:50:41;57.75;;;19.75;;
29432;SDS011;16405;53.964;13.448;2024-02-21T02:53:14;58.10;;;19.08;;
29432;SDS011;16405;53.964;13.448;2024-02-21T02:55:40;55.17;;;18.45;;
29432;SDS011;16405;53.964;13.448;2024-02-21T02:58:07;62.60;;;19.95;;
29432;SDS011;16405;53.964;13.448;2024-02-21T03:00:33;63.20;;;20.15;;
29432;SDS011;16405;53.964;13.448;2024-02-21T03:03:07;66.22;;;20.88;;
29432;SDS011;16405;53.964;13.448;2024-02-21T03:05:33;82.43;;;21.35;;
29432;SDS011;16405;53.964;13.448;2024-02-21T03:07:59;68.50;;;20.77;;
29432;SDS011;16405;53.964;13.448;2024-02-21T03:10:34;81.78;;;21.63;;
29432;SDS011;16405;53.964;13.448;2024-02-21T03:13:00;59.28;;;19.50;;
29432;SDS011;16405;53.964;13.448;2024-02-21T03:15:26;71.47;;;21.00;;
29432;SDS011;16405;53.964;13.448;2024-02-21T03:17:52;57.80;;;21.15;;
29432;SDS011;16405;53.964;13.448;2024-02-21T03:20:25;64.57;;;20.75;;
29432;SDS011;16405;53.964;13.448;2024-02-21T03:22:51;64.63;;;17.73;;
29432;SDS011;16405;53.964;13.448;2024-02-21T03:25:16;67.05;;;19.35;;
29432;SDS011;16405;53.964;13.448;2024-02-21T03:27:52;65.70;;;21.15;;
29432;SDS011;16405;53.964;13.448;2024-02-21T03:30:18;56.22;;;19.48;;
29432;SDS011;16405;53.964;13.448;2024-02-21T03:32:44;62.47;;;20.42;;
29432;SDS011;16405;53.964;13.448;2024-02-21T03:35:09;63.42;;;18.15;;
29432;SDS011;16405;53.964;13.448;2024-02-21T03:37:35;66.68;;;20.70;;
29432;SDS011;16405;53.964;13.448;2024-02-21T03:40:10;55.40;;;17.83;;
29432;SDS011;16405;53.964;13.448;2024-02-21T03:42:36;69.93;;;20.02;;
29432;SDS011;16405;53.964;13.448;2024-02-21T03:45:03;60.85;;;20.00;;
29432;SDS011;16405;53.964;13.448;2024-02-21T03:47:37;67.55;;;19.20;;
29432;SDS011;16405;53.964;13.448;2024-02-21T03:50:03;64.78;;;20.63;;
29432;SDS011;16405;53.964;13.448;2024-02-21T03:52:36;65.07;;;20.30;;
29432;SDS011;16405;53.964;13.448;2024-02-21T03:55:04;57.08;;;19.20;;
29432;SDS011;16405;53.964;13.448;2024-02-21T03:57:30;58.25;;;17.50;;
29432;SDS011;16405;53.964;13.448;2024-02-21T03:59:56;57.72;;;18.08;;
29432;SDS011;16405;53.964;13.448;2024-02-21T04:02:22;59.63;;;19.83;;
29432;SDS011;16405;53.964;13.448;2024-02-21T04:04:48;64.47;;;22.13;;
29432;SDS011;16405;53.964;13.448;2024-02-21T04:07:22;63.38;;;19.33;;
29432;SDS011;16405;53.964;13.448;2024-02-21T04:09:48;51.97;;;17.70;;
29432;SDS011;16405;53.964;13.448;2024-02-21T04:12:14;52.17;;;16.23;;
29432;SDS011;16405;53.964;13.448;2024-02-21T04:14:40;53.78;;;18.42;;
29432;SDS011;16405;53.964;13.448;2024-02-21T04:17:15;52.75;;;17.20;;
29432;SDS011;16405;53.964;13.448;2024-02-21T04:19:41;47.95;;;19.10;;
29432;SDS011;16405;53.964;13.448;2024-02-21T04:22:07;48.38;;;18.05;;
29432;SDS011;16405;53.964;13.448;2024-02-21T04:24:42;52.87;;;19.70;;
29432;SDS011;16405;53.964;13.448;2024-02-21T04:27:08;71.10;;;20.98;;
29432;SDS011;16405;53.964;13.448;2024-02-21T04:29:34;61.08;;;18.63;;
29432;SDS011;16405;53.964;13.448;2024-02-21T04:32:01;53.35;;;18.48;;
29432;SDS011;16405;53.964;13.448;2024-02-21T04:34:34;61.38;;;19.80;;
29432;SDS011;16405;53.964;13.448;2024-02-21T04:37:00;51.22;;;18.50;;
29432;SDS011;16405;53.964;13.448;2024-02-21T04:39:26;48.30;;;18.02;;
29432;SDS011;16405;53.964;13.448;2024-02-21T04:41:52;51.08;;;18.33;;
29432;SDS011;16405;53.964;13.448;2024-02-21T04:44:25;46.92;;;16.63;;
29432;SDS011;16405;53.964;13.448;2024-02-21T04:46:51;52.17;;;17.15;;
29432;SDS011;16405;53.964;13.448;2024-02-21T04:49:17;49.72;;;18.48;;
29432;SDS011;16405;53.964;13.448;2024-02-21T04:51:43;44.25;;;17.58;;
29432;SDS011;16405;53.964;13.448;2024-02-21T04:54:11;43.58;;;16.77;;
29432;SDS011;16405;53.964;13.448;2024-02-21T04:56:39;43.10;;;16.88;;
29432;SDS011;16405;53.964;13.448;2024-02-21T04:59:05;53.67;;;16.33;;
29432;SDS011;16405;53.964;13.448;2024-02-21T05:01:31;47.28;;;14.95;;
29432;SDS011;16405;53.964;13.448;2024-02-21T05:03:57;39.17;;;15.93;;
29432;SDS011;16405;53.964;13.448;2024-02-21T05:06:22;40.72;;;15.73;;
29432;SDS011;16405;53.964;13.448;2024-02-21T05:08:48;38.80;;;14.43;;
29432;SDS011;16405;53.964;13.448;2024-02-21T05:11:23;44.30;;;16.13;;
29432;SDS011;16405;53.964;13.448;2024-02-21T05:13:49;41.03;;;14.32;;
29432;SDS011;16405;53.964;13.448;2024-02-21T05:16:15;39.85;;;15.95;;
29432;SDS011;16405;53.964;13.448;2024-02-21T05:18:50;37.67;;;14.80;;
29432;SDS011;16405;53.964;13.448;2024-02-21T05:21:15;35.90;;;13.45;;
29432;SDS011;16405;53.964;13.448;2024-02-21T05:23:41;33.88;;;14.43;;
29432;SDS011;16405;53.964;13.448;2024-02-21T05:26:19;35.45;;;15.50;;
29432;SDS011;16405;53.964;13.448;2024-02-21T05:28:47;39.85;;;16.42;;
29432;SDS011;16405;53.964;13.448;2024-02-21T05:31:20;32.10;;;13.32;;
29432;SDS011;16405;53.964;13.448;2024-02-21T05:33:46;33.28;;;15.88;;
29432;SDS011;16405;53.964;13.448;2024-02-21T05:36:12;36.28;;;16.20;;
29432;SDS011;16405;53.964;13.448;2024-02-21T05:38:39;41.22;;;16.85;;
29432;SDS011;16405;53.964;13.448;2024-02-21T05:41:05;36.83;;;17.23;;
29432;SDS011;16405;53.964;13.448;2024-02-21T05:43:35;34.17;;;15.65;;
29432;SDS011;16405;53.964;13.448;2024-02-21T05:46:01;43.92;;;16.55;;
29432;SDS011;16405;53.964;13.448;2024-02-21T05:48:27;37.58;;;14.13;;
29432;SDS011;16405;53.964;13.448;2024-02-21T05:50:52;38.30;;;16.80;;
29432;SDS011;16405;53.964;13.448;2024-02-21T05:53:18;41.75;;;18.33;;
29432;SDS011;16405;53.964;13.448;2024-02-21T05:55:44;33.90;;;13.65;;
29432;SDS011;16405;53.964;13.448;2024-02-21T05:58:15;44.65;;;18.85;;
29432;SDS011;16405;53.964;13.448;2024-02-21T06:00:41;47.72;;;17.77;;
29432;SDS011;16405;53.964;13.448;2024-02-21T06:03:07;43.47;;;17.38;;
29432;SDS011;16405;53.964;13.448;2024-02-21T06:05:36;31.70;;;14.45;;
29432;SDS011;16405;53.964;13.448;2024-02-21T06:08:11;38.15;;;17.48;;
29432;SDS011;16405;53.964;13.448;2024-02-21T06:10:37;38.72;;;16.83;;
29432;SDS011;16405;53.964;13.448;2024-02-21T06:13:03;40.13;;;18.77;;
29432;SDS011;16405;53.964;13.448;2024-02-21T06:15:31;39.63;;;18.73;;
29432;SDS011;16405;53.964;13.448;2024-02-21T06:18:00;43.60;;;18.88;;
29432;SDS011;16405;53.964;13.448;2024-02-21T06:20:26;41.25;;;20.00;;
29432;SDS011;16405;53.964;13.448;2024-02-21T06:22:52;45.30;;;20.10;;
29432;SDS011;16405;53.964;13.448;2024-02-21T06:25:19;43.92;;;19.48;;
29432;SDS011;16405;53.964;13.448;2024-02-21T06:27:44;44.20;;;18.27;;
29432;SDS011;16405;53.964;13.448;2024-02-21T06:30:20;41.45;;;15.93;;
29432;SDS011;16405;53.964;13.448;2024-02-21T06:32:45;50.05;;;19.63;;
29432;SDS011;16405;53.964;13.448;2024-02-21T06:35:11;54.80;;;20.13;;
29432;SDS011;16405;53.964;13.448;2024-02-21T06:37:45;44.05;;;19.75;;
29432;SDS011;16405;53.964;13.448;2024-02-21T06:40:15;53.28;;;21.35;;
29432;SDS011;16405;53.964;13.448;2024-02-21T06:42:48;46.83;;;20.38;;
29432;SDS011;16405;53.964;13.448;2024-02-21T06:45:15;42.22;;;19.98;;
29432;SDS011;16405;53.964;13.448;2024-02-21T06:47:42;59.53;;;21.95;;
29432;SDS011;16405;53.964;13.448;2024-02-21T06:50:08;52.15;;;21.83;;
29432;SDS011;16405;53.964;13.448;2024-02-21T06:52:40;64.25;;;23.02;;
29432;SDS011;16405;53.964;13.448;2024-02-21T06:55:06;53.22;;;21.33;;
29432;SDS011;16405;53.964;13.448;2024-02-21T06:57:32;39.88;;;15.40;;
29432;SDS011;16405;53.964;13.448;2024-02-21T06:59:58;52.88;;;22.17;;
29432;SDS011;16405;53.964;13.448;2024-02-21T07:02:24;51.35;;;19.15;;
29432;SDS011;16405;53.964;13.448;2024-02-21T07:04:55;47.92;;;21.05;;
29432;SDS011;16405;53.964;13.448;2024-02-21T07:07:26;52.28;;;21.42;;
29432;SDS011;16405;53.964;13.448;2024-02-21T07:09:52;51.47;;;20.58;;
29432;SDS011;16405;53.964;13.448;2024-02-21T07:12:23;50.40;;;21.73;;
29432;SDS011;16405;53.964;13.448;2024-02-21T07:14:49;59.45;;;22.70;;
29432;SDS011;16405;53.964;13.448;2024-02-21T07:17:15;50.50;;;19.92;;
29432;SDS011;16405;53.964;13.448;2024-02-21T07:19:41;47.00;;;17.50;;
29432;SDS011;16405;53.964;13.448;2024-02-21T07:22:06;48.60;;;20.45;;
29432;SDS011;16405;53.964;13.448;2024-02-21T07:24:32;49.22;;;20.33;;
29432;SDS011;16405;53.964;13.448;2024-02-21T07:27:07;57.55;;;20.55;;
29432;SDS011;16405;53.964;13.448;2024-02-21T07:29:33;59.28;;;21.98;;
29432;SDS011;16405;53.964;13.448;2024-02-21T07:31:59;46.40;;;18.98;;
29432;SDS011;16405;53.964;13.448;2024-02-21T07:34:33;45.42;;;19.50;;
29432;SDS011;16405;53.964;13.448;2024-02-21T07:36:59;49.40;;;19.30;;
29432;SDS011;16405;53.964;13.448;2024-02-21T07:39:25;48.60;;;18.50;;
29432;SDS011;16405;53.964;13.448;2024-02-21T07:42:02;48.08;;;19.33;;
29432;SDS011;16405;53.964;13.448;2024-02-21T07:44:28;47.35;;;17.75;;
29432;SDS011;16405;53.964;13.448;2024-02-21T07:46:57;56.03;;;19.55;;
29432;SDS011;16405;53.964;13.448;2024-02-21T07:49:29;52.75;;;20.35;;
29432;SDS011;16405;53.964;13.448;2024-02-21T07:52:00;50.08;;;20.23;;
29432;SDS011;16405;53.964;13.448;2024-02-21T07:54:37;49.90;;;19.38;;
29432;SDS011;16405;53.964;13.448;2024-02-21T07:57:03;50.88;;;18.77;;
29432;SDS011;16405;53.964;13.448;2024-02-21T07:59:35;42.40;;;17.00;;
29432;SDS011;16405;53.964;13.448;2024-02-21T08:02:01;35.97;;;16.50;;
29432;SDS011;16405;53.964;13.448;2024-02-21T08:04:27;43.22;;;19.08;;
29432;SDS011;16405;53.964;13.448;2024-02-21T08:06:53;38.80;;;18.20;;
29432;SDS011;16405;53.964;13.448;2024-02-21T08:09:29;38.10;;;17.88;;
29432;SDS011;16405;53.964;13.448;2024-02-21T08:11:55;36.70;;;17.38;;
29432;SDS011;16405;53.964;13.448;2024-02-21T08:14:22;36.75;;;16.10;;
29432;SDS011;16405;53.964;13.448;2024-02-21T08:16:54;36.05;;;14.93;;
29432;SDS011;16405;53.964;13.448;2024-02-21T08:19:21;33.17;;;13.93;;
29432;SDS011;16405;53.964;13.448;2024-02-21T08:21:47;35.72;;;14.38;;
29432;SDS011;16405;53.964;13.448;2024-02-21T08:24:13;27.27;;;12.77;;
29432;SDS011;16405;53.964;13.448;2024-02-21T08:26:46;38.00;;;13.65;;
29432;SDS011;16405;53.964;13.448;2024-02-21T08:29:11;33.35;;;14.73;;
29432;SDS011;16405;53.964;13.448;2024-02-21T08:31:38;36.25;;;14.65;;
29432;SDS011;16405;53.964;13.448;2024-02-21T08:34:03;30.08;;;13.52;;
29432;SDS011;16405;53.964;13.448;2024-02-21T08:36:33;30.70;;;13.60;;
29432;SDS011;16405;53.964;13.448;2024-02-21T08:39:08;27.88;;;11.95;;
29432;SDS011;16405;53.964;13.448;2024-02-21T08:41:34;25.33;;;11.27;;
29432;SDS011;16405;53.964;13.448;2024-02-21T08:44:00;28.55;;;12.43;;
29432;SDS011;16405;53.964;13.448;2024-02-21T08:46:31;24.25;;;11.18;;
29432;SDS011;16405;53.964;13.448;2024-02-21T08:48:57;27.77;;;11.57;;
29432;SDS011;16405;53.964;13.448;2024-02-21T08:51:23;24.23;;;10.52;;
29432;SDS011;16405;53.964;13.448;2024-02-21T08:53:49;25.83;;;11.38;;
29432;SDS011;16405;53.964;13.448;2024-02-21T08:56:15;22.02;;;11.40;;
29432;SDS011;16405;53.964;13.448;2024-02-21T08:58:48;24.67;;;11.10;;
29432;SDS011;16405;53.964;13.448;2024-02-21T09:01:15;24.98;;;11.40;;
29432;SDS011;16405;53.964;13.448;2024-02-21T09:03:41;23.13;;;11.05;;
29432;SDS011;16405;53.964;13.448;2024-02-21T09:06:10;20.08;;;9.82;;
29432;SDS011;16405;53.964;13.448;2024-02-21T09:08:44;26.15;;;10.27;;
29432;SDS011;16405;53.964;13.448;2024-02-21T09:11:10;21.13;;;9.48;;
29432;SDS011;16405;53.964;13.448;2024-02-21T09:13:36;22.27;;;9.27;;
29432;SDS011;16405;53.964;13.448;2024-02-21T09:16:11;19.52;;;8.63;;
29432;SDS011;16405;53.964;13.448;2024-02-21T09:18:37;16.77;;;7.10;;
29432;SDS011;16405;53.964;13.448;2024-02-21T09:21:11;19.65;;;7.20;;
29432;SDS011;16405;53.964;13.448;2024-02-21T09:23:41;15.13;;;6.63;;
29432;SDS011;16405;53.964;13.448;2024-02-21T09:26:07;14.02;;;5.93;;
29432;SDS011;16405;53.964;13.448;2024-02-21T09:28:38;15.93;;;6.20;;
29432;SDS011;16405;53.964;13.448;2024-02-21T09:31:04;14.13;;;6.38;;
29432;SDS011;16405;53.964;13.448;2024-02-21T09:33:33;14.60;;;5.82;;
29432;SDS011;16405;53.964;13.448;2024-02-21T09:35:59;18.67;;;6.20;;
29432;SDS011;16405;53.964;13.448;2024-02-21T09:38:35;16.33;;;5.70;;
29432;SDS011;16405;53.964;13.448;2024-02-21T09:41:08;12.70;;;6.03;;
29432;SDS011;16405;53.964;13.448;2024-02-21T09:43:57;11.45;;;3.97;;
29432;SDS011;16405;53.964;13.448;2024-02-21T09:46:44;9.57;;;2.60;;
29432;SDS011;16405;53.964;13.448;2024-02-21T09:49:35;3.92;;;1.23;;
29432;SDS011;16405;53.964;13.448;2024-02-21T09:52:12;7.55;;;1.80;;
29432;SDS011;16405;53.964;13.448;2024-02-21T09:54:51;5.68;;;1.88;;
29432;SDS011;16405;53.964;13.448;2024-02-21T09:57:18;6.53;;;1.63;;
29432;SDS011;16405;53.964;13.448;2024-02-21T10:00:09;3.85;;;1.60;;
29432;SDS011;16405;53.964;13.448;2024-02-21T10:02:48;8.70;;;1.23;;
29432;SDS011;16405;53.964;13.448;2024-02-21T10:05:19;5.53;;;1.75;;
29432;SDS011;16405;53.964;13.448;2024-02-21T10:07:51;6.30;;;1.52;;
29432;SDS011;16405;53.964;13.448;2024-02-21T10:10:19;5.57;;;1.55;;
29432;SDS011;16405;53.964;13.448;2024-02-21T10:12:55;2.90;;;1.30;;
29432;SDS011;16405;53.964;13.448;2024-02-21T10:17:53;3.70;;;1.40;;
29432;SDS011;16405;53.964;13.448;2024-02-21T10:20:25;5.10;;;1.33;;
29432;SDS011;16405;53.964;13.448;2024-02-21T10:25:52;3.67;;;1.65;;
29432;SDS011;16405;53.964;13.448;2024-02-21T10:28:42;5.18;;;1.52;;
29432;SDS011;16405;53.964;13.448;2024-02-21T10:31:26;4.63;;;2.08;;
29432;SDS011;16405;53.964;13.448;2024-02-21T10:34:04;3.40;;;1.65;;
29432;SDS011;16405;53.964;13.448;2024-02-21T10:36:30;4.50;;;1.73;;
29432;SDS011;16405;53.964;13.448;2024-02-21T10:39:06;6.40;;;2.08;;
29432;SDS011;16405;53.964;13.448;2024-02-21T10:41:34;5.00;;;1.60;;
29432;SDS011;16405;53.964;13.448;2024-02-21T10:44:16;3.83;;;1.48;;
29432;SDS011;16405;53.964;13.448;2024-02-21T10:47:08;2.80;;;1.45;;
29432;SDS011;16405;53.964;13.448;2024-02-21T10:49:54;3.30;;;1.17;;
29432;SDS011;16405;53.964;13.448;2024-02-21T10:56:01;2.85;;;1.10;;
29432;SDS011;16405;53.964;13.448;2024-02-21T11:01:45;4.70;;;1.27;;
29432;SDS011;16405;53.964;13.448;2024-02-21T11:04:23;2.30;;;0.80;;
29432;SDS011;16405;53.964;13.448;2024-02-21T11:07:01;4.65;;;0.98;;
29432;SDS011;16405;53.964;13.448;2024-02-21T11:09:58;2.03;;;0.73;;
29432;SDS011;16405;53.964;13.448;2024-02-21T11:12:33;3.17;;;0.77;;
29432;SDS011;16405;53.964;13.448;2024-02-21T11:17:36;1.23;;;0.90;;
29432;SDS011;16405;53.964;13.448;2024-02-21T11:20:10;4.43;;;1.17;;
29432;SDS011;16405;53.964;13.448;2024-02-21T11:22:44;6.97;;;1.00;;
29432;SDS011;16405;53.964;13.448;2024-02-21T11:25:21;4.97;;;1.10;;
29432;SDS011;16405;53.964;13.448;2024-02-21T11:28:01;2.78;;;1.00;;
29432;SDS011;16405;53.964;13.448;2024-02-21T11:31:05;2.03;;;0.70;;
29432;SDS011;16405;53.964;13.448;2024-02-21T11:33:34;3.67;;;0.75;;
29432;SDS011;16405;53.964;13.448;2024-02-21T11:36:01;4.10;;;0.75;;
29432;SDS011;16405;53.964;13.448;2024-02-21T11:38:50;4.47;;;0.70;;
29432;SDS011;16405;53.964;13.448;2024-02-21T11:41:20;2.03;;;0.68;;
29432;SDS011;16405;53.964;13.448;2024-02-21T11:43:57;3.60;;;0.73;;
29432;SDS011;16405;53.964;13.448;2024-02-21T11:46:24;6.57;;;0.88;;
29432;SDS011;16405;53.964;13.448;2024-02-21T11:49:01;4.38;;;0.95;;
29432;SDS011;16405;53.964;13.448;2024-02-21T11:51:39;1.98;;;0.70;;
29432;SDS011;16405;53.964;13.448;2024-02-21T11:54:35;8.85;;;0.95;;
29432;SDS011;16405;53.964;13.448;2024-02-21T11:57:30;5.18;;;0.77;;
29432;SDS011;16405;53.964;13.448;2024-02-21T11:59:56;3.30;;;0.93;;
29432;SDS011;16405;53.964;13.448;2024-02-21T12:02:37;2.75;;;0.60;;
29432;SDS011;16405;53.964;13.448;2024-02-21T12:05:15;3.20;;;0.68;;
29432;SDS011;16405;53.964;13.448;2024-02-21T12:07:45;7.20;;;0.88;;
29432;SDS011;16405;53.964;13.448;2024-02-21T12:10:20;4.78;;;1.13;;
29432;SDS011;16405;53.964;13.448;2024-02-21T12:13:04;3.78;;;0.70;;
29432;SDS011;16405;53.964;13.448;2024-02-21T12:15:39;3.83;;;0.80;;
29432;SDS011;16405;53.964;13.448;2024-02-21T12:18:15;5.18;;;1.55;;
29432;SDS011;16405;53.964;13.448;2024-02-21T12:20:42;4.25;;;1.05;;
29432;SDS011;16405;53.964;13.448;2024-02-21T12:23:10;3.97;;;0.80;;
29432;SDS011;16405;53.964;13.448;2024-02-21T12:25:36;5.00;;;0.97;;
29432;SDS011;16405;53.964;13.448;2024-02-21T12:28:11;2.17;;;0.68;;
29432;SDS011;16405;53.964;13.448;2024-02-21T12:30:37;2.17;;;0.80;;
29432;SDS011;16405;53.964;13.448;2024-02-21T12:33:12;6.10;;;1.20;;
29432;SDS011;16405;53.964;13.448;2024-02-21T12:38:07;3.93;;;0.83;;
29432;SDS011;16405;53.964;13.448;2024-02-21T12:40:33;4.75;;;0.95;;
29432;SDS011;16405;53.964;13.448;2024-02-21T12:43:07;6.13;;;1.10;;
29432;SDS011;16405;53.964;13.448;2024-02-21T12:45:33;6.32;;;1.10;;
29432;SDS011;16405;53.964;13.448;2024-02-21T12:47:59;2.95;;;0.70;;
29432;SDS011;16405;53.964;13.448;2024-02-21T12:50:35;6.13;;;1.20;;
29432;SDS011;16405;53.964;13.448;2024-02-21T12:53:01;5.35;;;1.10;;
29432;SDS011;16405;53.964;13.448;2024-02-21T12:55:27;3.65;;;1.00;;
29432;SDS011;16405;53.964;13.448;2024-02-21T12:58:03;3.30;;;1.00;;
29432;SDS011;16405;53.964;13.448;2024-02-21T13:00:32;7.50;;;1.00;;
29432;SDS011;16405;53.964;13.448;2024-02-21T13:03:07;4.28;;;0.90;;
29432;SDS011;16405;53.964;13.448;2024-02-21T13:05:34;4.07;;;0.60;;
29432;SDS011;16405;53.964;13.448;2024-02-21T13:08:08;3.80;;;0.90;;
29432;SDS011;16405;53.964;13.448;2024-02-21T13:10:37;2.55;;;0.88;;
29432;SDS011;16405;53.964;13.448;2024-02-21T13:13:08;4.03;;;0.80;;
29432;SDS011;16405;53.964;13.448;2024-02-21T13:15:37;2.92;;;0.85;;
29432;SDS011;16405;53.964;13.448;2024-02-21T13:18:07;2.50;;;0.68;;
29432;SDS011;16405;53.964;13.448;2024-02-21T13:20:42;4.15;;;1.17;;
29432;SDS011;16405;53.964;13.448;2024-02-21T13:23:08;3.20;;;0.80;;
29432;SDS011;16405;53.964;13.448;2024-02-21T13:25:34;2.67;;;0.50;;
29432;SDS011;16405;53.964;13.448;2024-02-21T13:28:00;5.93;;;0.80;;
29432;SDS011;16405;53.964;13.448;2024-02-21T13:30:26;8.30;;;0.85;;
29432;SDS011;16405;53.964;13.448;2024-02-21T13:32:59;3.40;;;0.60;;
29432;SDS011;16405;53.964;13.448;2024-02-21T13:35:25;3.72;;;0.70;;
29432;SDS011;16405;53.964;13.448;2024-02-21T13:38:02;3.78;;;0.60;;
29432;SDS011;16405;53.964;13.448;2024-02-21T13:40:28;3.70;;;0.60;;
29432;SDS011;16405;53.964;13.448;2024-02-21T13:42:54;2.97;;;0.70;;
29432;SDS011;16405;53.964;13.448;2024-02-21T13:45:20;3.92;;;0.70;;
29432;SDS011;16405;53.964;13.448;2024-02-21T13:47:56;3.30;;;0.73;;
29432;SDS011;16405;53.964;13.448;2024-02-21T13:50:31;5.30;;;0.80;;
29432;SDS011;16405;53.964;13.448;2024-02-21T13:52:59;4.85;;;0.73;;
29432;SDS011;16405;53.964;13.448;2024-02-21T13:55:26;4.90;;;1.20;;
29432;SDS011;16405;53.964;13.448;2024-02-21T13:57:52;6.88;;;0.90;;
29432;SDS011;16405;53.964;13.448;2024-02-21T14:00:26;3.00;;;0.63;;
29432;SDS011;16405;53.964;13.448;2024-02-21T14:02:52;1.55;;;0.50;;
29432;SDS011;16405;53.964;13.448;2024-02-21T14:05:19;5.05;;;0.80;;
29432;SDS011;16405;53.964;13.448;2024-02-21T14:07:55;4.75;;;0.88;;
29432;SDS011;16405;53.964;13.448;2024-02-21T14:10:21;4.18;;;0.70;;
29432;SDS011;16405;53.964;13.448;2024-02-21T14:12:47;10.05;;;0.63;;
29432;SDS011;16405;53.964;13.448;2024-02-21T14:15:23;3.50;;;0.80;;
29432;SDS011;16405;53.964;13.448;2024-02-21T14:17:50;4.75;;;0.85;;
29432;SDS011;16405;53.964;13.448;2024-02-21T14:20:15;3.15;;;0.60;;
29432;SDS011;16405;53.964;13.448;2024-02-21T14:22:50;3.10;;;0.85;;
29432;SDS011;16405;53.964;13.448;2024-02-21T14:25:16;4.38;;;0.73;;
29432;SDS011;16405;53.964;13.448;2024-02-21T14:27:42;5.10;;;0.70;;
29432;SDS011;16405;53.964;13.448;2024-02-21T14:30:08;3.58;;;0.77;;
29432;SDS011;16405;53.964;13.448;2024-02-21T14:32:43;6.35;;;0.82;;
29432;SDS011;16405;53.964;13.448;2024-02-21T14:35:10;1.42;;;0.57;;
29432;SDS011;16405;53.964;13.448;2024-02-21T14:37:36;2.53;;;0.70;;
29432;SDS011;16405;53.964;13.448;2024-02-21T14:40:07;0.75;;;0.30;;
29432;SDS011;16405;53.964;13.448;2024-02-21T14:42:36;2.05;;;0.40;;
29432;SDS011;16405;53.964;13.448;2024-02-21T14:45:03;0.73;;;0.40;;
29432;SDS011;16405;53.964;13.448;2024-02-21T14:47:38;1.30;;;0.38;;
29432;SDS011;16405;53.964;13.448;2024-02-21T14:50:04;1.50;;;0.40;;
29432;SDS011;16405;53.964;13.448;2024-02-21T14:52:32;1.17;;;0.50;;
29432;SDS011;16405;53.964;13.448;2024-02-21T14:55:09;2.80;;;0.70;;